Time;durP1;ratioP1;P1;durP2;ratioP2;P2;SDS_P1;SDS_P2;PMS_P1;PMS_P2;Temp;Humidity;BMP_temperature;BMP_pressure;BME280_temperature;BME280_humidity;BME280_pressure;Samples;Min_cycle;Max_cycle;Signal;HPM_P1;HPM_P2
2021/12/03 00:00:39;;;;;;;7.03;2.03;;;1.10;99.90;;;;;;5075852;28;20067;-58
2021/12/03 00:03:05;;;;;;;;;;;0.90;99.90;;;;;;5076077;28;20055;-58
2021/12/03 00:05:30;;;;;;;6.10;2.03;;;1.10;99.90;;;;;;5075686;28;19917;-58
2021/12/03 00:07:56;;;;;;;4.10;2.00;;;1.00;99.90;;;;;;5075467;28;20506;-58
2021/12/03 00:10:25;;;;;;;8.27;2.13;;;1.00;99.90;;;;;;5075888;28;20068;-58
2021/12/03 00:12:52;;;;;;;4.20;2.60;;;1.00;99.90;;;;;;5075810;28;20070;-58
2021/12/03 00:15:19;;;;;;;8.18;2.75;;;1.10;99.90;;;;;;5075704;28;20045;-58
2021/12/03 00:17:44;;;;;;;5.82;3.40;;;1.10;99.90;;;;;;5075713;28;20095;-57
2021/12/03 00:20:14;;;;;;;6.28;3.55;;;1.10;99.90;;;;;;5075474;28;20498;-59
2021/12/03 00:22:44;;;;;;;7.75;3.90;;;1.20;99.90;;;;;;5074481;28;20076;-58
2021/12/03 00:25:10;;;;;;;8.95;3.88;;;1.10;99.90;;;;;;5108314;28;20068;-57
2021/12/03 00:27:37;;;;;;;6.43;4.35;;;1.10;99.90;;;;;;5075508;28;20086;-59
2021/12/03 00:30:04;;;;;;;7.78;4.28;;;1.20;99.90;;;;;;5073939;28;20043;-58
2021/12/03 00:32:30;;;;;;;7.60;4.70;;;1.20;99.90;;;;;;5075311;28;20124;-59
2021/12/03 00:34:56;;;;;;;10.30;5.30;;;1.10;99.90;;;;;;5075115;28;20115;-58
2021/12/03 00:37:21;;;;;;;10.95;5.22;;;1.10;99.90;;;;;;5075136;28;20036;-58
2021/12/03 00:39:47;;;;;;;9.93;5.75;;;1.20;99.90;;;;;;5057380;28;20044;-58
2021/12/03 00:42:16;;;;;;;12.35;6.55;;;1.30;99.90;;;;;;5075184;28;20053;-58
2021/12/03 00:44:44;;;;;;;9.18;5.50;;;1.20;99.90;;;;;;5075177;28;20097;-60
2021/12/03 00:47:10;;;;;;;13.57;6.03;;;1.30;99.90;;;;;;5075008;28;20127;-58
2021/12/03 00:49:36;;;;;;;10.50;6.03;;;1.30;99.90;;;;;;5074836;28;20072;-59
2021/12/03 00:52:01;;;;;;;11.20;6.15;;;1.30;99.90;;;;;;5074682;28;20486;-59
2021/12/03 00:54:27;;;;;;;18.10;6.35;;;1.40;99.90;;;;;;5074940;28;20045;-59
2021/12/03 00:56:52;;;;;;;10.55;6.03;;;1.40;99.90;;;;;;5107101;28;20056;-59
2021/12/03 00:59:18;;;;;;;10.55;5.85;;;1.40;99.90;;;;;;5074973;28;20051;-58
2021/12/03 01:01:44;;;;;;;12.50;6.13;;;1.50;99.90;;;;;;5073652;28;20045;-58
2021/12/03 01:04:09;;;;;;;11.13;5.05;;;1.50;99.90;;;;;;5057030;28;20040;-59
2021/12/03 01:06:35;;;;;;;8.93;6.00;;;1.40;99.90;;;;;;5074528;28;20574;-60
2021/12/03 01:09:00;;;;;;;10.15;5.38;;;1.40;99.90;;;;;;5074946;28;20128;-58
2021/12/03 01:11:26;;;;;;;11.70;6.57;;;1.50;99.90;;;;;;5074794;28;20552;-59
2021/12/03 01:13:53;;;;;;;10.90;7.57;;;1.50;99.90;;;;;;5074815;28;20037;-59
2021/12/03 01:16:19;;;;;;;10.02;4.90;;;1.50;99.90;;;;;;5074036;28;20082;-58
2021/12/03 01:18:46;;;;;;;10.10;4.75;;;1.60;99.90;;;;;;5074557;28;20445;-59
2021/12/03 01:21:14;;;;;;;10.80;5.20;;;1.50;99.90;;;;;;5074740;28;20091;-58
2021/12/03 01:23:39;;;;;;;10.52;5.88;;;1.60;99.90;;;;;;5073482;28;20072;-58
2021/12/03 01:26:05;;;;;;;8.10;4.18;;;1.60;99.90;;;;;;5074489;28;20061;-59
2021/12/03 01:28:31;;;;;;;10.07;5.38;;;1.60;99.90;;;;;;5073018;28;20093;-58
2021/12/03 01:30:58;;;;;;;14.48;4.65;;;1.50;99.90;;;;;;5074252;28;20033;-59
2021/12/03 01:33:24;;;;;;;8.55;5.38;;;1.50;99.90;;;;;;5073020;28;20128;-59
2021/12/03 01:35:50;;;;;;;15.35;7.25;;;1.60;99.90;;;;;;5074510;28;20071;-58
2021/12/03 01:38:16;;;;;;;13.98;6.78;;;1.60;99.90;;;;;;5073092;28;20135;-58
2021/12/03 01:40:41;;;;;;;11.13;6.00;;;1.70;99.90;;;;;;5072877;28;20383;-58
2021/12/03 01:43:10;;;;;;;13.95;7.15;;;1.70;99.90;;;;;;5074077;28;20047;-57
2021/12/03 01:45:39;;;;;;;14.77;8.05;;;1.70;99.90;;;;;;5074074;28;20490;-58
2021/12/03 01:48:05;;;;;;;12.98;7.97;;;1.90;99.90;;;;;;5073946;28;20040;-58
2021/12/03 01:50:35;;;;;;;15.20;8.63;;;1.80;99.90;;;;;;5073892;28;20555;-58
2021/12/03 01:53:02;;;;;;;14.13;9.13;;;1.80;99.90;;;;;;5056090;28;20123;-58
2021/12/03 01:55:28;;;;;;;16.20;9.30;;;1.90;99.90;;;;;;5074485;28;20056;-58
2021/12/03 01:57:54;;;;;;;14.27;8.98;;;1.80;99.90;;;;;;5073812;28;20131;-56
2021/12/03 02:00:28;;;;;;;18.05;10.07;;;1.90;99.90;;;;;;5073758;28;20075;-59
2021/12/03 02:02:54;;;;;;;24.30;11.70;;;;;;;;;;5106526;28;20072;-59
2021/12/03 02:05:20;;;;;;;18.63;12.40;;;1.80;99.90;;;;;;5073243;28;20455;-58
2021/12/03 02:07:46;;;;;;;22.23;12.93;;;1.90;99.90;;;;;;5073856;28;20032;-58
2021/12/03 02:10:13;;;;;;;24.08;13.73;;;1.90;99.90;;;;;;5073896;28;20064;-58
2021/12/03 02:12:38;;;;;;;28.48;13.85;;;1.90;99.90;;;;;;5073932;28;20074;-57
2021/12/03 02:15:05;;;;;;;22.42;14.25;;;1.90;99.90;;;;;;5072439;28;20040;-57
2021/12/03 02:17:30;;;;;;;22.15;14.00;;;2.00;99.90;;;;;;5072367;28;20483;-57
2021/12/03 02:19:57;;;;;;;20.02;13.85;;;2.00;99.90;;;;;;5105872;28;20086;-58
2021/12/03 02:22:23;;;;;;;21.33;14.80;;;1.90;99.90;;;;;;5072252;28;20162;-58
2021/12/03 02:24:49;;;;;;;21.73;14.40;;;1.90;99.90;;;;;;5057490;28;20036;-58
2021/12/03 02:27:14;;;;;;;21.90;13.40;;;2.00;99.90;;;;;;5052069;28;20517;-58
2021/12/03 02:29:40;;;;;;;22.08;13.45;;;2.00;99.90;;;;;;5053168;28;20428;-58
2021/12/03 02:32:06;;;;;;;21.80;14.05;;;2.00;99.90;;;;;;5053632;28;20048;-58
2021/12/03 02:34:32;;;;;;;20.20;13.93;;;2.00;99.90;;;;;;5053053;28;20048;-59
2021/12/03 02:36:57;;;;;;;22.05;14.15;;;2.00;99.90;;;;;;5053236;28;20087;-59
2021/12/03 02:39:23;;;;;;;20.20;13.63;;;;;;;;;;5051868;28;20086;-60
2021/12/03 02:41:49;;;;;;;19.73;13.48;;;2.10;99.90;;;;;;5085793;28;20048;-57
2021/12/03 02:44:14;;;;;;;19.33;13.00;;;2.10;99.90;;;;;;5053158;28;20490;-57
2021/12/03 02:46:40;;;;;;;18.63;13.63;;;2.20;99.90;;;;;;5052333;28;20090;-57
2021/12/03 02:49:08;;;;;;;18.08;13.00;;;2.20;99.90;;;;;;5052934;28;20390;-58
2021/12/03 02:51:34;;;;;;;28.02;13.95;;;2.10;99.90;;;;;;5053095;28;20048;-58
2021/12/03 02:54:00;;;;;;;19.45;12.55;;;2.20;99.90;;;;;;5051815;28;20108;-57
2021/12/03 02:56:26;;;;;;;20.33;13.95;;;2.20;99.90;;;;;;5052978;28;20060;-58
2021/12/03 02:58:52;;;;;;;18.35;13.40;;;;;;;;;;5062250;28;20044;-59
2021/12/03 03:01:18;;;;;;;18.13;12.25;;;2.10;99.90;;;;;;5073299;28;20037;-59
2021/12/03 03:03:43;;;;;;;17.75;11.98;;;2.00;99.90;;;;;;5071698;28;20528;-58
2021/12/03 03:06:09;;;;;;;20.27;11.95;;;2.00;99.90;;;;;;5073148;28;20075;-58
2021/12/03 03:08:35;;;;;;;19.77;12.10;;;2.00;99.90;;;;;;5073213;28;20033;-58
2021/12/03 03:11:03;;;;;;;16.13;11.98;;;2.00;99.90;;;;;;5072812;28;20410;-59
2021/12/03 03:13:29;;;;;;;22.00;11.68;;;1.90;99.90;;;;;;5055528;28;20056;-58
2021/12/03 03:15:54;;;;;;;18.20;11.63;;;1.90;99.90;;;;;;5073123;28;20044;-58
2021/12/03 03:18:26;;;;;;;21.77;12.55;;;2.10;99.90;;;;;;5072543;28;20033;-59
2021/12/03 03:20:54;;;;;;;18.13;11.27;;;2.00;99.90;;;;;;5071569;28;20067;-60
2021/12/03 03:23:20;;;;;;;17.88;12.27;;;1.90;99.90;;;;;;5071523;28;20115;-59
2021/12/03 03:25:48;;;;;;;16.83;11.75;;;1.90;99.90;;;;;;5073066;28;20045;-58
2021/12/03 03:28:14;;;;;;;18.23;11.40;;;1.90;99.90;;;;;;5072741;28;20044;-59
2021/12/03 03:30:42;;;;;;;16.30;11.02;;;1.80;99.90;;;;;;5072705;28;20040;-60
2021/12/03 03:33:09;;;;;;;17.38;11.85;;;1.90;99.90;;;;;;5071790;28;20456;-58
2021/12/03 03:35:35;;;;;;;15.00;10.60;;;2.00;99.90;;;;;;5072906;28;20406;-59
2021/12/03 03:38:01;;;;;;;17.92;11.52;;;2.00;99.90;;;;;;5073672;28;20044;-59
2021/12/03 03:40:28;;;;;;;20.55;11.27;;;2.00;99.90;;;;;;5076386;28;20037;-60
2021/12/03 03:42:54;;;;;;;19.20;11.57;;;2.00;99.90;;;;;;5076329;28;20494;-59
2021/12/03 03:45:22;;;;;;;17.80;12.50;;;2.00;99.90;;;;;;5076461;28;20036;-59
2021/12/03 03:47:48;;;;;;;16.88;12.18;;;2.00;99.90;;;;;;5076348;28;20119;-58
2021/12/03 03:50:16;;;;;;;17.52;11.50;;;1.90;99.90;;;;;;5076376;28;20064;-59
2021/12/03 03:52:43;;;;;;;19.60;11.60;;;2.00;99.90;;;;;;5076252;28;20070;-59
2021/12/03 03:55:10;;;;;;;15.80;12.15;;;2.00;99.90;;;;;;5076040;28;20047;-57
2021/12/03 03:57:35;;;;;;;18.45;11.32;;;1.90;99.90;;;;;;5108373;28;20052;-58
2021/12/03 04:00:04;;;;;;;15.68;11.98;;;2.00;99.90;;;;;;5075957;28;20090;-59
2021/12/03 04:02:29;;;;;;;19.75;11.93;;;1.90;99.90;;;;;;5076159;28;20045;-60
2021/12/03 04:04:55;;;;;;;19.52;11.98;;;1.90;99.90;;;;;;5108870;28;20040;-58
2021/12/03 04:07:21;;;;;;;21.95;12.18;;;1.90;99.90;;;;;;5075897;28;20077;-59
2021/12/03 04:09:46;;;;;;;16.80;12.15;;;1.90;99.90;;;;;;5057801;28;20119;-60
2021/12/03 04:12:12;;;;;;;20.25;13.18;;;1.90;99.90;;;;;;5075921;28;20036;-59
2021/12/03 04:14:38;;;;;;;18.13;13.23;;;1.90;99.90;;;;;;5074607;28;20496;-60
2021/12/03 04:17:03;;;;;;;21.83;13.27;;;1.90;99.90;;;;;;5091786;28;20620;-59
2021/12/03 04:19:29;;;;;;;17.48;14.65;;;1.80;99.90;;;;;;5074785;28;20079;-60
2021/12/03 04:21:55;;;;;;;20.88;13.45;;;1.80;99.90;;;;;;5075794;28;20036;-59
2021/12/03 04:24:21;;;;;;;20.85;13.30;;;1.80;99.90;;;;;;5075769;28;20395;-59
2021/12/03 04:26:46;;;;;;;21.60;13.15;;;1.90;99.90;;;;;;5075730;28;20033;-60
2021/12/03 04:29:12;;;;;;;20.42;13.45;;;1.80;99.90;;;;;;5075668;28;20474;-59
2021/12/03 04:31:38;;;;;;;19.75;12.48;;;1.70;99.90;;;;;;5075173;28;20490;-59
2021/12/03 04:34:03;;;;;;;18.23;12.93;;;1.80;99.90;;;;;;5074297;28;20045;-56
2021/12/03 04:36:29;;;;;;;19.38;14.07;;;1.90;99.90;;;;;;5074016;28;20033;-59
2021/12/03 04:38:54;;;;;;;20.17;13.30;;;1.80;99.90;;;;;;5075243;28;20115;-58
2021/12/03 04:41:20;;;;;;;24.52;13.77;;;1.80;99.90;;;;;;5073843;28;20405;-58
2021/12/03 04:43:46;;;;;;;23.60;12.80;;;1.90;99.90;;;;;;5073734;28;20123;-58
2021/12/03 04:46:12;;;;;;;22.00;14.00;;;;;;;;;;5075530;28;20040;-59
2021/12/03 04:48:38;;;;;;;19.90;11.93;;;2.00;99.90;;;;;;5075315;28;20043;-57
2021/12/03 04:51:04;;;;;;;21.50;13.48;;;2.00;99.90;;;;;;5074323;28;20119;-58
2021/12/03 04:53:29;;;;;;;20.17;13.23;;;2.00;99.90;;;;;;5075431;28;20044;-58
2021/12/03 04:55:55;;;;;;;18.33;13.65;;;2.10;99.90;;;;;;5075250;28;20051;-58
2021/12/03 04:58:21;;;;;;;20.55;13.15;;;2.10;99.90;;;;;;5073349;28;20503;-58
2021/12/03 05:00:50;;;;;;;19.38;13.98;;;2.00;99.90;;;;;;5074882;28;20494;-57
2021/12/03 05:03:16;;;;;;;20.35;13.90;;;;;;;;;;5075383;28;20143;-58
2021/12/03 05:05:45;;;;;;;22.25;12.98;;;2.10;99.90;;;;;;5075109;28;20044;-58
2021/12/03 05:08:11;;;;;;;18.75;13.68;;;2.00;99.90;;;;;;5074983;28;20115;-58
2021/12/03 05:10:42;;;;;;;26.67;13.63;;;2.00;99.90;;;;;;5074757;28;20067;-58
2021/12/03 05:13:17;;;;;;;22.58;13.60;;;1.90;99.90;;;;;;5074630;28;20044;-57
2021/12/03 05:15:45;;;;;;;23.10;13.98;;;2.00;99.90;;;;;;5072812;28;20064;-57
2021/12/03 05:18:14;;;;;;;20.20;13.88;;;2.00;99.90;;;;;;5075161;28;20046;-57
2021/12/03 05:20:40;;;;;;;24.80;14.45;;;2.10;99.90;;;;;;5074996;28;20037;-57
2021/12/03 05:23:07;;;;;;;18.58;14.18;;;;;;;;;;5102489;28;20045;-60
2021/12/03 05:25:33;;;;;;;22.20;14.80;;;2.10;99.90;;;;;;5063583;28;20052;-59
2021/12/03 05:27:59;;;;;;;20.10;14.55;;;;;;;;;;5071152;28;20043;-58
2021/12/03 05:30:25;;;;;;;19.20;13.52;;;;;;;;;;5068986;28;20040;-60
2021/12/03 05:32:51;;;;;;;21.23;14.57;;;2.30;99.90;;;;;;5069584;28;20036;-60
2021/12/03 05:35:17;;;;;;;20.83;14.45;;;;;;;;;;5072255;28;20040;-61
2021/12/03 05:37:43;;;;;;;20.52;14.15;;;2.20;99.90;;;;;;5065654;28;20120;-59
2021/12/03 05:40:11;;;;;;;23.70;13.05;;;2.20;99.90;;;;;;5052013;28;20037;-59
2021/12/03 05:42:37;;;;;;;21.05;12.75;;;2.30;99.90;;;;;;5051868;28;20411;-59
2021/12/03 05:45:05;;;;;;;22.38;14.85;;;2.40;99.90;;;;;;5051185;28;20116;-60
2021/12/03 05:47:30;;;;;;;19.70;13.52;;;2.30;99.90;;;;;;5083472;28;20052;-60
2021/12/03 05:49:56;;;;;;;22.30;13.23;;;2.30;99.90;;;;;;5051227;28;20029;-59
2021/12/03 05:52:22;;;;;;;20.08;13.07;;;;;;;;;;5050835;28;20052;-61
2021/12/03 05:54:48;;;;;;;18.33;12.93;;;2.30;99.90;;;;;;5052063;28;20037;-60
2021/12/03 05:57:13;;;;;;;17.08;12.30;;;2.20;99.90;;;;;;5050865;28;20187;-59
2021/12/03 05:59:39;;;;;;;19.25;13.23;;;;;;;;;;5052717;28;20084;-60
2021/12/03 06:02:05;;;;;;;18.88;12.13;;;2.40;99.90;;;;;;5066007;28;20491;-61
2021/12/03 06:04:32;;;;;;;17.00;11.60;;;;;;;;;;5051357;28;20041;-60
2021/12/03 06:06:58;;;;;;;20.25;11.70;;;2.40;99.90;;;;;;5050200;28;20049;-60
2021/12/03 06:09:23;;;;;;;18.33;10.90;;;2.40;99.90;;;;;;5050954;28;20055;-61
2021/12/03 06:11:49;;;;;;;14.98;10.02;;;2.40;99.90;;;;;;5050909;28;20502;-60
2021/12/03 06:14:14;;;;;;;19.40;10.15;;;2.40;99.90;;;;;;5051008;28;20044;-60
2021/12/03 06:16:40;;;;;;;16.90;8.95;;;2.30;99.90;;;;;;5058188;28;20029;-60
2021/12/03 06:19:06;;;;;;;15.35;9.10;;;;;;;;;;5054100;28;20033;-60
2021/12/03 06:21:32;;;;;;;15.25;8.57;;;;;;;;;;5051381;28;20040;-60
2021/12/03 06:23:57;;;;;;;11.07;8.50;;;2.50;99.90;;;;;;5057001;28;20040;-59
2021/12/03 06:26:23;;;;;;;15.00;8.18;;;;;;;;;;5050237;28;20041;-61
2021/12/03 06:28:49;;;;;;;14.63;8.85;;;2.80;99.90;;;;;;5054733;28;20044;-60
2021/12/03 06:31:14;;;;;;;13.88;8.27;;;2.50;99.90;;;;;;5051416;28;20136;-60
2021/12/03 06:33:40;;;;;;;12.93;6.60;;;2.70;99.90;;;;;;5067164;28;20048;-61
2021/12/03 06:36:06;;;;;;;11.20;7.20;;;2.70;99.90;;;;;;5071580;28;20124;-61
2021/12/03 06:38:33;;;;;;;12.57;6.97;;;2.70;99.90;;;;;;5071947;28;20051;-59
2021/12/03 06:40:59;;;;;;;14.80;7.50;;;2.80;99.90;;;;;;5071566;28;20048;-61
2021/12/03 06:43:25;;;;;;;18.65;6.65;;;2.80;99.90;;;;;;5071787;28;20166;-59
2021/12/03 06:45:51;;;;;;;12.13;6.32;;;;;;;;;;5071896;28;20083;-61
2021/12/03 06:48:17;;;;;;;9.02;6.68;;;2.90;99.90;;;;;;5071697;28;20037;-58
2021/12/03 06:50:44;;;;;;;13.32;7.35;;;;;;;;;;5072616;28;20612;-59
2021/12/03 06:53:13;;;;;;;20.00;6.78;;;2.80;99.90;;;;;;5072642;28;20080;-60
2021/12/03 06:55:52;;;;;;;10.85;5.82;;;;;;;;;;5071348;28;20045;-59
2021/12/03 06:58:19;;;;;;;12.77;6.05;;;3.00;99.90;;;;;;5066483;28;20048;-61
2021/12/03 07:00:48;;;;;;;10.05;5.90;;;2.90;99.90;;;;;;5104173;28;20029;-59
2021/12/03 07:03:14;;;;;;;11.05;5.43;;;2.70;99.90;;;;;;5104584;28;20090;-60
2021/12/03 07:05:40;;;;;;;9.82;5.22;;;3.00;99.90;;;;;;5071567;28;20064;-60
2021/12/03 07:08:06;;;;;;;7.95;5.10;;;;;;;;;;5069791;28;20120;-59
2021/12/03 07:10:33;;;;;;;9.27;4.80;;;2.90;99.90;;;;;;5068344;28;20039;-60
2021/12/03 07:12:59;;;;;;;17.30;5.72;;;3.00;99.90;;;;;;5071967;28;20036;-59
2021/12/03 07:15:25;;;;;;;7.57;5.05;;;3.00;99.90;;;;;;5075218;28;20097;-61
2021/12/03 07:17:51;;;;;;;14.43;4.68;;;3.00;99.90;;;;;;5074902;28;20040;-59
2021/12/03 07:20:22;;;;;;;10.88;4.60;;;3.10;99.90;;;;;;5074941;28;20371;-59
2021/12/03 07:22:48;;;;;;;10.25;4.80;;;3.10;99.90;;;;;;5074635;28;20059;-60
2021/12/03 07:25:14;;;;;;;7.72;4.88;;;4.20;99.90;;;;;;5074983;28;20040;-59
2021/12/03 07:27:40;;;;;;;9.88;5.13;;;;;;;;;;5073280;28;20035;-60
2021/12/03 07:30:09;;;;;;;10.38;4.75;;;3.10;99.90;;;;;;5060587;28;20501;-61
2021/12/03 07:32:35;;;;;;;10.52;4.68;;;3.10;99.90;;;;;;5062771;28;20044;-59
2021/12/03 07:35:01;;;;;;;10.15;5.40;;;;;;;;;;5060325;28;20048;-59
2021/12/03 07:37:27;;;;;;;8.68;5.25;;;;;;;;;;5062103;28;20078;-60
2021/12/03 07:39:53;;;;;;;8.80;4.78;;;3.20;99.90;;;;;;5066385;28;20044;-59
2021/12/03 07:42:18;;;;;;;15.80;5.85;;;2.90;99.90;;;;;;5061525;28;20035;-60
2021/12/03 07:44:44;;;;;;;6.82;4.53;;;3.10;99.90;;;;;;5060837;28;20108;-61
2021/12/03 07:47:10;;;;;;;12.30;5.80;;;3.10;99.90;;;;;;5058958;28;20032;-60
2021/12/03 07:49:36;;;;;;;14.18;5.93;;;3.20;99.90;;;;;;5059836;28;20037;-61
2021/12/03 07:52:03;;;;;;;10.90;6.05;;;3.20;99.90;;;;;;5061420;28;20037;-61
2021/12/03 07:54:29;;;;;;;12.35;5.53;;;;;;;;;;5068606;28;20486;-60
2021/12/03 07:56:54;;;;;;;12.13;6.35;;;3.30;99.90;;;;;;5074997;28;20048;-60
2021/12/03 07:59:20;;;;;;;13.68;5.80;;;;;;;;;;5073343;28;20505;-61
2021/12/03 08:01:46;;;;;;;10.20;6.95;;;3.30;99.90;;;;;;5074886;28;20037;-59
2021/12/03 08:04:13;;;;;;;15.48;7.60;;;;;;;;;;5074825;28;20128;-59
2021/12/03 08:06:40;;;;;;;16.00;7.32;;;3.30;99.90;;;;;;5056767;28;20072;-59
2021/12/03 08:09:06;;;;;;;16.63;6.80;;;;;;;;;;5074410;28;20036;-62
2021/12/03 08:11:32;;;;;;;17.38;7.70;;;3.40;99.90;;;;;;5074990;28;20158;-63
2021/12/03 08:13:58;;;;;;;14.90;7.47;;;3.40;99.90;;;;;;5074950;28;20047;-62
2021/12/03 08:16:23;;;;;;;14.02;9.10;;;3.40;99.90;;;;;;5074411;28;20044;-62
2021/12/03 08:18:49;;;;;;;20.45;9.77;;;;;;;;;;5073371;28;20123;-60
2021/12/03 08:21:15;;;;;;;17.77;9.48;;;3.30;99.90;;;;;;5063036;28;20041;-60
2021/12/03 08:23:40;;;;;;;23.17;10.60;;;3.40;99.90;;;;;;5058584;28;20033;-60
2021/12/03 08:26:06;;;;;;;23.08;11.25;;;3.40;99.90;;;;;;5068772;28;20086;-60
2021/12/03 08:28:32;;;;;;;29.02;11.23;;;3.40;99.90;;;;;;5074565;28;20483;-60
2021/12/03 08:30:59;;;;;;;27.58;12.40;;;3.30;99.90;;;;;;5073154;28;20068;-60
2021/12/03 08:33:25;;;;;;;25.92;12.90;;;3.40;99.90;;;;;;5074236;28;20033;-60
2021/12/03 08:35:51;;;;;;;23.00;13.35;;;;;;;;;;5074256;28;20509;-60
2021/12/03 08:38:17;;;;;;;27.00;13.55;;;3.40;99.90;;;;;;5073643;28;20032;-60
2021/12/03 08:40:42;;;;;;;24.73;12.65;;;3.40;99.90;;;;;;5070749;28;20044;-60
2021/12/03 08:43:08;;;;;;;21.77;12.95;;;3.30;99.90;;;;;;5059875;28;20033;-60
2021/12/03 08:45:36;;;;;;;21.50;12.50;;;3.50;99.90;;;;;;5059414;28;20040;-60
2021/12/03 08:48:04;;;;;;;22.88;12.13;;;3.70;99.90;;;;;;5060514;28;20086;-60
2021/12/03 08:50:51;;;;;;;26.17;12.63;;;3.50;99.90;;;;;;5060363;28;20047;-60
2021/12/03 08:55:59;;;;;;;25.75;13.40;;;;;;;;;;5061191;28;20059;-60
2021/12/03 08:58:26;;;;;;;28.75;12.40;;;;;;;;;;5060972;28;20045;-60
2021/12/03 09:00:52;;;;;;;25.80;12.27;;;3.50;99.90;;;;;;5060998;28;20383;-60
2021/12/03 09:03:17;;;;;;;27.77;15.57;;;3.60;99.90;;;;;;5061985;28;20059;-60
2021/12/03 09:05:44;;;;;;;21.63;11.77;;;3.60;99.90;;;;;;5059917;28;20033;-60
2021/12/03 09:08:10;;;;;;;23.58;11.20;;;3.70;99.90;;;;;;5058329;28;20045;-60
2021/12/03 09:10:35;;;;;;;24.95;12.90;;;3.70;99.90;;;;;;5060902;28;20532;-60
2021/12/03 09:13:01;;;;;;;26.10;11.82;;;3.80;99.90;;;;;;5057586;28;20395;-60
2021/12/03 09:15:45;;;;;;;26.15;11.68;;;3.90;99.90;;;;;;5063147;28;20041;-60
2021/12/03 09:18:26;;;;;;;27.60;11.98;;;3.90;99.90;;;;;;5058470;28;20080;-60
2021/12/03 09:21:06;;;;;;;22.05;10.90;;;3.90;99.90;;;;;;5059989;28;20041;-60
2021/12/03 09:23:42;;;;;;;25.58;11.63;;;3.90;99.90;;;;;;5060353;28;20044;-60
2021/12/03 09:26:11;;;;;;;20.60;10.80;;;3.80;99.90;;;;;;5057391;28;20445;-60
2021/12/03 09:28:40;;;;;;;26.58;11.05;;;3.80;99.90;;;;;;5062655;28;20110;-60
2021/12/03 09:31:06;;;;;;;26.13;11.73;;;3.90;99.90;;;;;;5059515;28;20044;-60
2021/12/03 09:33:33;;;;;;;23.35;11.38;;;3.90;99.90;;;;;;5063685;28;20055;-60
2021/12/03 09:36:02;;;;;;;26.80;10.25;;;3.90;99.90;;;;;;5072483;28;20071;-60
2021/12/03 09:38:31;;;;;;;20.20;10.25;;;4.00;99.90;;;;;;5073129;28;20040;-60
2021/12/03 09:41:05;;;;;;;24.60;10.70;;;;;;;;;;5071568;28;20048;-60
2021/12/03 09:43:31;;;;;;;19.88;9.52;;;;;;;;;;5072548;28;20041;-60
2021/12/03 09:46:08;;;;;;;16.33;9.43;;;4.20;99.90;;;;;;5072410;28;20090;-60
2021/12/03 09:48:48;;;;;;;23.00;9.75;;;4.10;99.90;;;;;;5072940;28;20128;-60
2021/12/03 09:51:14;;;;;;;19.92;9.15;;;4.20;99.90;;;;;;5072504;28;20508;-60
2021/12/03 09:54:17;;;;;;;19.05;8.43;;;4.10;99.90;;;;;;5072454;28;20119;-60
2021/12/03 09:56:41;;;;;;;22.42;10.18;;;4.10;99.90;;;;;;5072639;28;20117;-60
2021/12/03 10:02:11;;;;;;;20.58;8.38;;;4.20;99.90;;;;;;5072714;28;20036;-60
2021/12/03 10:15:10;;;;;;;17.58;7.72;;;4.10;99.90;;;;;;5067851;28;20490;-61
2021/12/03 10:20:24;;;;;;;22.15;7.65;;;4.50;99.90;;;;;;5070781;28;20063;-62
2021/12/03 10:34:11;;;;;;;21.63;7.35;;;4.30;99.90;;;;;;5071520;28;20060;-61
2021/12/03 10:36:47;;;;;;;11.48;6.03;;;4.40;99.90;;;;;;5070795;28;20087;-61
2021/12/03 10:44:58;;;;;;;14.90;6.88;;;4.40;99.90;;;;;;5071050;28;20507;-61
2021/12/03 10:48:20;;;;;;;14.82;6.13;;;4.50;99.90;;;;;;5070647;28;20115;-62
2021/12/03 10:53:18;;;;;;;19.35;6.45;;;;;;;;;;5074037;28;20484;-63
2021/12/03 11:01:38;;;;;;;16.42;6.25;;;4.40;99.90;;;;;;5070224;28;20048;-62
2021/12/03 11:12:47;;;;;;;12.27;5.40;;;;;;;;;;5074851;28;20048;-62
2021/12/03 11:15:55;;;;;;;14.27;6.65;;;;;;;;;;5074706;28;20054;-62
2021/12/03 11:29:07;;;;;;;15.18;5.28;;;4.30;99.90;;;;;;5074769;28;20644;-61
2021/12/03 11:34:52;;;;;;;15.15;5.05;;;;;;;;;;5095030;28;20755;-62
2021/12/03 11:54:45;;;;;;;15.68;5.05;;;;;;;;;;5070637;28;20080;-62
2021/12/03 13:06:42;;;;;;;12.93;5.55;;;;;;;;;;5072410;28;20041;-63
2021/12/03 13:08:44;;;;;;;13.05;6.47;;;4.10;99.90;;;;;;5070524;28;20571;-63
2021/12/03 13:13:54;;;;;;;13.57;5.07;;;4.30;99.90;;;;;;5059181;28;20041;-62
2021/12/03 14:13:34;;;;;;;11.45;4.50;;;4.80;99.90;;;;;;5070744;28;20044;-60
2021/12/03 14:17:35;;;;;;;10.55;4.47;;;4.80;99.90;;;;;;5070776;28;20414;-61
2021/12/03 14:33:38;;;;;;;12.40;5.40;;;4.80;99.90;;;;;;5071512;28;20048;-62
2021/12/03 14:43:06;;;;;;;10.10;4.95;;;;;;;;;;5070803;28;20079;-62
2021/12/03 14:48:29;;;;;;;9.07;5.38;;;;;;;;;;5070966;28;20491;-62
2021/12/03 14:51:41;;;;;;;8.63;5.80;;;;;;;;;;5060377;28;20037;-61
2021/12/03 14:56:36;;;;;;;8.98;5.25;;;5.00;99.90;;;;;;5058092;28;20056;-60
2021/12/03 14:59:36;;;;;;;7.78;5.00;;;;;;;;;;5057411;28;20045;-60
2021/12/03 15:07:06;;;;;;;9.55;5.93;;;4.80;99.90;;;;;;5054534;28;19917;-60
2021/12/03 15:09:36;;;;;;;10.07;5.85;;;;;;;;;;5067917;28;20040;-62
2021/12/03 15:20:28;;;;;;;12.40;6.20;;;5.00;99.90;;;;;;4994446;28;20049;-62
2021/12/03 15:23:08;;;;;;;11.75;6.18;;;;;;;;;;5072440;28;20055;-61
2021/12/03 15:30:55;;;;;;;12.88;6.65;;;;;;;;;;5070384;28;20036;-60
2021/12/03 15:36:58;;;;;;;8.88;6.90;;;;;;;;;;5039063;28;20167;-60
2021/12/03 15:39:30;;;;;;;11.93;8.35;;;5.00;99.90;;;;;;5073340;28;20172;-61
2021/12/03 15:58:29;;;;;;;14.07;9.52;;;;;;;;;;5066705;28;20525;-59
2021/12/03 16:06:53;;;;;;;19.88;10.95;;;4.90;99.90;;;;;;5071320;28;20128;-59
2021/12/03 16:09:00;;;;;;;15.52;10.00;;;4.90;99.90;;;;;;5062486;28;20055;-60
2021/12/03 16:11:37;;;;;;;13.50;11.55;;;5.00;99.90;;;;;;5066367;28;20029;-59
2021/12/03 16:19:31;;;;;;;17.13;11.85;;;5.00;99.90;;;;;;5071768;28;20124;-61
2021/12/03 16:25:08;;;;;;;16.98;11.95;;;4.90;99.90;;;;;;5070944;28;20080;-60
2021/12/03 16:44:08;;;;;;;22.38;15.80;;;;;;;;;;5072646;28;20131;-61
2021/12/03 16:54:16;;;;;;;25.27;17.13;;;;;;;;;;5054912;28;20140;-61
2021/12/03 16:56:48;;;;;;;21.38;16.30;;;4.70;99.90;;;;;;5060808;28;20048;-60
2021/12/03 16:59:14;;;;;;;26.38;17.60;;;;;;;;;;5065255;28;20049;-61
2021/12/03 17:04:27;;;;;;;26.50;17.95;;;;;;;;;;5042184;28;20396;-61
2021/12/03 17:09:58;;;;;;;24.98;18.77;;;;;;;;;;5044795;28;20580;-61
2021/12/03 17:12:44;;;;;;;24.05;18.58;;;;;;;;;;5045287;28;20457;-61
2021/12/03 17:15:22;;;;;;;25.48;18.80;;;;;;;;;;5050797;28;20052;-61
2021/12/03 17:50:07;;;;;;;30.15;21.38;;;4.80;99.90;;;;;;5071992;28;20043;-59
2021/12/03 17:56:00;;;;;;;31.73;20.90;;;;;;;;;;5071984;28;20048;-60
2021/12/03 17:58:26;;;;;;;32.35;22.30;;;;;;;;;;5070462;28;20059;-61
2021/12/03 18:08:43;;;;;;;33.75;22.45;;;4.80;99.90;;;;;;5071469;28;20476;-60
2021/12/03 18:17:17;;;;;;;35.65;22.83;;;;;;;;;;5071963;28;20079;-61
2021/12/03 18:57:15;;;;;;;43.28;27.15;;;4.80;99.90;;;;;;5071610;28;20056;-58
2021/12/03 18:59:53;;;;;;;46.95;27.30;;;4.90;99.90;;;;;;5071778;28;20040;-60
2021/12/03 19:02:21;;;;;;;45.38;28.05;;;4.80;99.90;;;;;;5071818;28;20102;-60
2021/12/03 19:07:29;;;;;;;47.28;29.35;;;;;;;;;;5068458;28;20111;-60
2021/12/03 19:09:59;;;;;;;49.30;28.38;;;;;;;;;;5066443;28;20525;-61
2021/12/03 19:12:27;;;;;;;47.03;28.70;;;4.80;99.90;;;;;;5053607;28;20077;-60
2021/12/03 19:14:56;;;;;;;49.17;28.08;;;4.80;99.90;;;;;;5054564;28;20072;-61
2021/12/03 19:17:24;;;;;;;45.22;28.25;;;4.90;99.90;;;;;;5054032;28;20049;-60
2021/12/03 19:19:55;;;;;;;44.85;27.20;;;4.90;99.90;;;;;;5055515;28;20041;-60
2021/12/03 19:22:22;;;;;;;44.08;28.25;;;5.00;99.90;;;;;;5055360;28;20502;-59
2021/12/03 19:24:48;;;;;;;46.55;27.88;;;5.20;99.90;;;;;;5055831;28;20041;-60
2021/12/03 19:27:14;;;;;;;50.25;30.50;;;4.90;99.90;;;;;;5074122;28;20071;-59
2021/12/03 19:29:43;;;;;;;57.03;31.23;;;;;;;;;;5075355;28;20504;-60
2021/12/03 19:32:09;;;;;;;51.65;29.67;;;5.10;99.90;;;;;;5075434;28;20089;-58
2021/12/03 19:34:35;;;;;;;52.28;29.48;;;4.80;99.90;;;;;;5059007;28;20037;-61
2021/12/03 19:37:01;;;;;;;53.78;29.83;;;4.80;99.90;;;;;;5037271;28;20049;-62
2021/12/03 19:39:27;;;;;;;50.20;29.30;;;5.00;99.90;;;;;;5055158;28;20116;-61
2021/12/03 19:42:08;;;;;;;50.88;27.83;;;5.00;99.90;;;;;;5055186;28;20140;-60
2021/12/03 19:44:40;;;;;;;50.10;27.85;;;5.00;99.90;;;;;;5053913;28;20179;-61
2021/12/03 19:47:08;;;;;;;49.15;27.85;;;;;;;;;;5053716;28;20041;-61
2021/12/03 19:49:51;;;;;;;51.10;29.10;;;;;;;;;;5053640;28;20048;-61
2021/12/03 19:54:46;;;;;;;56.60;29.92;;;5.10;99.90;;;;;;5054934;28;20052;-61
2021/12/03 19:57:12;;;;;;;51.65;28.17;;;5.10;99.90;;;;;;5054628;28;20048;-61
2021/12/03 19:59:38;;;;;;;58.80;29.80;;;;;;;;;;5068047;28;20037;-60